sensor_id;sensor_type;location;lat;lon;timestamp;pressure;altitude;pressure_sealevel;temperature;humidity
64080;BME280;51042;49.696;10.808;2023-03-26T00:01:15;97786.38;;;5.79;100.00
64080;BME280;51042;49.696;10.808;2023-03-26T00:03:42;97778.38;;;5.71;100.00
64080;BME280;51042;49.696;10.808;2023-03-26T00:06:09;97790.16;;;5.65;100.00
64080;BME280;51042;49.696;10.808;2023-03-26T00:08:35;97794.41;;;5.66;100.00
64080;BME280;51042;49.696;10.808;2023-03-26T00:11:01;97801.03;;;5.65;100.00
64080;BME280;51042;49.696;10.808;2023-03-26T00:13:26;97797.06;;;5.69;100.00
64080;BME280;51042;49.696;10.808;2023-03-26T00:15:52;97797.06;;;5.69;100.00
64080;BME280;51042;49.696;10.808;2023-03-26T00:18:18;97798.66;;;5.67;100.00
64080;BME280;51042;49.696;10.808;2023-03-26T00:20:48;97798.72;;;5.63;100.00
64080;BME280;51042;49.696;10.808;2023-03-26T00:23:14;97788.25;;;5.62;100.00
64080;BME280;51042;49.696;10.808;2023-03-26T00:25:39;97797.97;;;5.63;100.00
64080;BME280;51042;49.696;10.808;2023-03-26T00:28:06;97800.75;;;5.59;100.00
64080;BME280;51042;49.696;10.808;2023-03-26T00:30:31;97801.56;;;5.56;100.00
64080;BME280;51042;49.696;10.808;2023-03-26T00:32:57;97803.22;;;5.50;100.00
64080;BME280;51042;49.696;10.808;2023-03-26T00:35:22;97802.06;;;5.51;100.00
64080;BME280;51042;49.696;10.808;2023-03-26T00:37:48;97800.16;;;5.48;100.00
64080;BME280;51042;49.696;10.808;2023-03-26T00:40:17;97813.75;;;5.48;100.00
64080;BME280;51042;49.696;10.808;2023-03-26T00:42:43;97804.84;;;5.48;100.00
64080;BME280;51042;49.696;10.808;2023-03-26T00:45:08;97807.09;;;5.53;100.00
64080;BME280;51042;49.696;10.808;2023-03-26T00:47:33;97805.19;;;5.50;100.00
64080;BME280;51042;49.696;10.808;2023-03-26T00:49:58;97812.25;;;5.47;100.00
64080;BME280;51042;49.696;10.808;2023-03-26T00:52:24;97804.13;;;5.44;100.00
64080;BME280;51042;49.696;10.808;2023-03-26T00:54:52;97803.72;;;5.45;100.00
64080;BME280;51042;49.696;10.808;2023-03-26T00:57:17;97794.78;;;5.45;100.00
64080;BME280;51042;49.696;10.808;2023-03-26T00:59:45;97792.72;;;5.52;100.00
64080;BME280;51042;49.696;10.808;2023-03-26T01:02:11;97787.56;;;5.58;100.00
64080;BME280;51042;49.696;10.808;2023-03-26T01:04:43;97791.75;;;5.62;100.00
64080;BME280;51042;49.696;10.808;2023-03-26T01:07:09;97787.28;;;5.72;100.00
64080;BME280;51042;49.696;10.808;2023-03-26T01:09:36;97791.06;;;5.78;100.00
64080;BME280;51042;49.696;10.808;2023-03-26T01:12:08;97792.53;;;5.83;100.00
64080;BME280;51042;49.696;10.808;2023-03-26T01:14:34;97789.06;;;5.82;100.00
64080;BME280;51042;49.696;10.808;2023-03-26T01:17:00;97789.47;;;5.81;100.00
64080;BME280;51042;49.696;10.808;2023-03-26T01:19:27;97776.25;;;5.79;100.00
64080;BME280;51042;49.696;10.808;2023-03-26T01:21:53;97778.22;;;5.79;100.00
64080;BME280;51042;49.696;10.808;2023-03-26T01:24:23;97774.72;;;5.78;100.00
64080;BME280;51042;49.696;10.808;2023-03-26T01:27:00;97778.56;;;5.81;100.00
64080;BME280;51042;49.696;10.808;2023-03-26T01:32:21;97771.44;;;5.87;100.00
64080;BME280;51042;49.696;10.808;2023-03-26T01:34:57;97776.09;;;5.90;100.00
64080;BME280;51042;49.696;10.808;2023-03-26T01:37:49;97775.66;;;5.91;100.00
64080;BME280;51042;49.696;10.808;2023-03-26T01:40:22;97780.47;;;5.84;100.00
64080;BME280;51042;49.696;10.808;2023-03-26T01:45:35;97770.03;;;5.79;100.00
64080;BME280;51042;49.696;10.808;2023-03-26T01:48:02;97763.50;;;5.76;100.00
64080;BME280;51042;49.696;10.808;2023-03-26T01:50:27;97763.91;;;5.74;100.00
64080;BME280;51042;49.696;10.808;2023-03-26T01:52:52;97769.75;;;5.73;100.00
64080;BME280;51042;49.696;10.808;2023-03-26T01:55:18;97765.94;;;5.70;100.00
64080;BME280;51042;49.696;10.808;2023-03-26T02:03:01;97766.22;;;5.76;100.00
64080;BME280;51042;49.696;10.808;2023-03-26T02:05:28;97750.66;;;5.77;100.00
64080;BME280;51042;49.696;10.808;2023-03-26T02:07:58;97761.06;;;5.82;100.00
64080;BME280;51042;49.696;10.808;2023-03-26T02:10:31;97757.84;;;5.87;100.00
64080;BME280;51042;49.696;10.808;2023-03-26T02:12:57;97754.00;;;5.84;100.00
64080;BME280;51042;49.696;10.808;2023-03-26T02:15:22;97749.81;;;5.80;100.00
64080;BME280;51042;49.696;10.808;2023-03-26T02:17:48;97739.00;;;5.76;100.00
64080;BME280;51042;49.696;10.808;2023-03-26T02:20:14;97735.28;;;5.66;100.00
64080;BME280;51042;49.696;10.808;2023-03-26T02:22:40;97733.13;;;5.58;100.00
64080;BME280;51042;49.696;10.808;2023-03-26T02:25:11;97730.94;;;5.49;100.00
64080;BME280;51042;49.696;10.808;2023-03-26T02:27:36;97719.38;;;5.45;100.00
64080;BME280;51042;49.696;10.808;2023-03-26T02:30:03;97717.53;;;5.39;100.00
64080;BME280;51042;49.696;10.808;2023-03-26T02:32:28;97717.19;;;5.37;100.00
64080;BME280;51042;49.696;10.808;2023-03-26T02:34:53;97709.47;;;5.35;100.00
64080;BME280;51042;49.696;10.808;2023-03-26T02:37:18;97711.81;;;5.33;100.00
64080;BME280;51042;49.696;10.808;2023-03-26T02:39:44;97708.81;;;5.27;100.00
64080;BME280;51042;49.696;10.808;2023-03-26T02:42:09;97712.34;;;5.24;100.00
64080;BME280;51042;49.696;10.808;2023-03-26T02:44:35;97710.00;;;5.26;100.00
64080;BME280;51042;49.696;10.808;2023-03-26T02:47:02;97708.41;;;5.29;100.00
64080;BME280;51042;49.696;10.808;2023-03-26T02:49:27;97720.06;;;5.29;100.00
64080;BME280;51042;49.696;10.808;2023-03-26T02:51:53;97713.47;;;5.27;100.00
64080;BME280;51042;49.696;10.808;2023-03-26T02:54:20;97716.19;;;5.27;100.00
64080;BME280;51042;49.696;10.808;2023-03-26T02:56:45;97721.34;;;5.21;100.00
64080;BME280;51042;49.696;10.808;2023-03-26T02:59:10;97715.25;;;5.14;100.00
64080;BME280;51042;49.696;10.808;2023-03-26T03:01:35;97710.31;;;5.09;100.00
64080;BME280;51042;49.696;10.808;2023-03-26T03:04:06;97706.91;;;5.05;100.00
64080;BME280;51042;49.696;10.808;2023-03-26T03:06:32;97704.66;;;5.00;100.00
64080;BME280;51042;49.696;10.808;2023-03-26T03:08:57;97694.19;;;4.98;100.00
64080;BME280;51042;49.696;10.808;2023-03-26T03:11:22;97699.34;;;4.92;100.00
64080;BME280;51042;49.696;10.808;2023-03-26T03:13:51;97693.31;;;4.81;100.00
64080;BME280;51042;49.696;10.808;2023-03-26T03:16:17;97691.09;;;4.73;100.00
64080;BME280;51042;49.696;10.808;2023-03-26T03:18:42;97692.81;;;4.63;100.00
64080;BME280;51042;49.696;10.808;2023-03-26T03:21:07;97678.50;;;4.59;100.00
64080;BME280;51042;49.696;10.808;2023-03-26T03:23:32;97685.50;;;4.60;100.00
64080;BME280;51042;49.696;10.808;2023-03-26T03:25:57;97687.13;;;4.54;100.00
64080;BME280;51042;49.696;10.808;2023-03-26T03:28:24;97685.72;;;4.46;100.00
64080;BME280;51042;49.696;10.808;2023-03-26T03:30:49;97677.69;;;4.39;100.00
64080;BME280;51042;49.696;10.808;2023-03-26T03:33:20;97671.53;;;4.35;100.00
64080;BME280;51042;49.696;10.808;2023-03-26T03:35:46;97674.66;;;4.33;100.00
64080;BME280;51042;49.696;10.808;2023-03-26T03:38:12;97674.34;;;4.28;100.00
64080;BME280;51042;49.696;10.808;2023-03-26T03:40:38;97680.25;;;4.23;100.00
64080;BME280;51042;49.696;10.808;2023-03-26T03:43:03;97673.63;;;4.24;100.00
64080;BME280;51042;49.696;10.808;2023-03-26T03:45:29;97677.09;;;4.24;100.00
64080;BME280;51042;49.696;10.808;2023-03-26T03:47:55;97670.09;;;4.27;100.00
64080;BME280;51042;49.696;10.808;2023-03-26T03:50:20;97675.13;;;4.28;100.00
64080;BME280;51042;49.696;10.808;2023-03-26T03:52:45;97675.53;;;4.27;100.00
64080;BME280;51042;49.696;10.808;2023-03-26T03:55:11;97678.25;;;4.27;100.00
64080;BME280;51042;49.696;10.808;2023-03-26T03:57:37;97682.41;;;4.35;100.00
64080;BME280;51042;49.696;10.808;2023-03-26T04:00:03;97678.38;;;4.43;100.00
64080;BME280;51042;49.696;10.808;2023-03-26T04:02:28;97679.09;;;4.47;100.00
64080;BME280;51042;49.696;10.808;2023-03-26T04:04:58;97677.09;;;4.51;100.00
64080;BME280;51042;49.696;10.808;2023-03-26T04:07:24;97679.75;;;4.55;100.00
64080;BME280;51042;49.696;10.808;2023-03-26T04:09:49;97678.94;;;4.58;100.00
64080;BME280;51042;49.696;10.808;2023-03-26T04:12:15;97674.50;;;4.67;100.00
64080;BME280;51042;49.696;10.808;2023-03-26T04:14:40;97671.72;;;4.71;100.00
64080;BME280;51042;49.696;10.808;2023-03-26T04:17:05;97663.22;;;4.69;100.00
64080;BME280;51042;49.696;10.808;2023-03-26T04:19:31;97660.91;;;4.67;100.00
64080;BME280;51042;49.696;10.808;2023-03-26T04:21:56;97655.84;;;4.69;100.00
64080;BME280;51042;49.696;10.808;2023-03-26T04:24:27;97655.84;;;4.69;100.00
64080;BME280;51042;49.696;10.808;2023-03-26T04:26:52;97658.56;;;4.69;100.00
64080;BME280;51042;49.696;10.808;2023-03-26T04:29:17;97654.19;;;4.75;100.00
64080;BME280;51042;49.696;10.808;2023-03-26T04:31:45;97662.69;;;4.77;100.00
64080;BME280;51042;49.696;10.808;2023-03-26T04:34:18;97644.50;;;4.74;100.00
64080;BME280;51042;49.696;10.808;2023-03-26T04:36:44;97647.22;;;4.74;100.00
64080;BME280;51042;49.696;10.808;2023-03-26T04:39:10;97643.44;;;4.68;100.00
64080;BME280;51042;49.696;10.808;2023-03-26T04:41:37;97641.50;;;4.69;100.00
64080;BME280;51042;49.696;10.808;2023-03-26T04:44:02;97625.88;;;4.73;100.00
64080;BME280;51042;49.696;10.808;2023-03-26T04:46:28;97627.06;;;4.72;100.00
64080;BME280;51042;49.696;10.808;2023-03-26T04:48:57;97622.75;;;4.74;100.00
64080;BME280;51042;49.696;10.808;2023-03-26T04:51:23;97623.94;;;4.73;100.00
64080;BME280;51042;49.696;10.808;2023-03-26T04:53:52;97625.13;;;4.72;100.00
64080;BME280;51042;49.696;10.808;2023-03-26T04:56:24;97617.69;;;4.76;100.00
64080;BME280;51042;49.696;10.808;2023-03-26T04:58:54;97619.56;;;4.79;100.00
64080;BME280;51042;49.696;10.808;2023-03-26T05:01:23;97627.31;;;4.81;100.00
64080;BME280;51042;49.696;10.808;2023-03-26T05:03:52;97625.34;;;4.81;100.00
64080;BME280;51042;49.696;10.808;2023-03-26T05:06:17;97622.22;;;4.83;100.00
64080;BME280;51042;49.696;10.808;2023-03-26T05:08:42;97618.31;;;4.84;100.00
64080;BME280;51042;49.696;10.808;2023-03-26T05:11:08;97612.47;;;4.85;100.00
64080;BME280;51042;49.696;10.808;2023-03-26T05:13:35;97614.38;;;4.88;100.00
64080;BME280;51042;49.696;10.808;2023-03-26T05:16:00;97611.97;;;4.90;100.00
64080;BME280;51042;49.696;10.808;2023-03-26T05:18:25;97599.84;;;4.95;100.00
64080;BME280;51042;49.696;10.808;2023-03-26T05:20:50;97594.78;;;4.97;100.00
64080;BME280;51042;49.696;10.808;2023-03-26T05:23:16;97584.66;;;4.98;100.00
64080;BME280;51042;49.696;10.808;2023-03-26T05:25:41;97576.78;;;5.03;100.00
64080;BME280;51042;49.696;10.808;2023-03-26T05:28:06;97583.28;;;5.09;100.00
64080;BME280;51042;49.696;10.808;2023-03-26T05:30:31;97575.81;;;5.13;100.00
64080;BME280;51042;49.696;10.808;2023-03-26T05:32:58;97565.47;;;5.24;100.00
64080;BME280;51042;49.696;10.808;2023-03-26T05:35:23;97571.44;;;5.55;100.00
64080;BME280;51042;49.696;10.808;2023-03-26T05:37:48;97553.69;;;5.67;100.00
64080;BME280;51042;49.696;10.808;2023-03-26T05:40:15;97560.34;;;5.66;100.00
64080;BME280;51042;49.696;10.808;2023-03-26T05:42:41;97554.19;;;5.62;100.00
64080;BME280;51042;49.696;10.808;2023-03-26T05:45:07;97546.53;;;5.57;100.00
64080;BME280;51042;49.696;10.808;2023-03-26T05:47:33;97541.50;;;5.55;100.00
64080;BME280;51042;49.696;10.808;2023-03-26T05:49:58;97548.22;;;5.51;100.00
64080;BME280;51042;49.696;10.808;2023-03-26T05:52:24;97552.91;;;5.50;100.00
64080;BME280;51042;49.696;10.808;2023-03-26T05:54:49;97545.59;;;5.47;100.00
64080;BME280;51042;49.696;10.808;2023-03-26T05:57:15;97541.25;;;5.50;100.00
64080;BME280;51042;49.696;10.808;2023-03-26T05:59:40;97535.75;;;5.53;100.00
64080;BME280;51042;49.696;10.808;2023-03-26T06:02:06;97526.31;;;5.58;100.00
64080;BME280;51042;49.696;10.808;2023-03-26T06:04:32;97532.78;;;5.64;100.00
64080;BME280;51042;49.696;10.808;2023-03-26T06:06:57;97517.06;;;5.71;100.00
64080;BME280;51042;49.696;10.808;2023-03-26T06:09:23;97513.81;;;5.77;100.00
64080;BME280;51042;49.696;10.808;2023-03-26T06:11:48;97510.75;;;5.74;100.00
64080;BME280;51042;49.696;10.808;2023-03-26T06:14:13;97501.47;;;5.72;100.00
64080;BME280;51042;49.696;10.808;2023-03-26T06:16:39;97496.38;;;5.74;100.00
64080;BME280;51042;49.696;10.808;2023-03-26T06:19:04;97493.75;;;5.70;100.00
64080;BME280;51042;49.696;10.808;2023-03-26T06:21:29;97491.59;;;5.62;100.00
64080;BME280;51042;49.696;10.808;2023-03-26T06:23:54;97495.09;;;5.62;100.00
64080;BME280;51042;49.696;10.808;2023-03-26T06:26:19;97501.91;;;5.70;100.00
64080;BME280;51042;49.696;10.808;2023-03-26T06:28:45;97489.16;;;5.84;100.00
64080;BME280;51042;49.696;10.808;2023-03-26T06:31:10;97492.69;;;6.00;100.00
64080;BME280;51042;49.696;10.808;2023-03-26T06:33:35;97491.22;;;6.12;100.00
64080;BME280;51042;49.696;10.808;2023-03-26T06:36:01;97483.97;;;6.22;100.00
64080;BME280;51042;49.696;10.808;2023-03-26T06:38:26;97483.69;;;6.32;100.00
64080;BME280;51042;49.696;10.808;2023-03-26T06:40:51;97486.56;;;6.41;100.00
64080;BME280;51042;49.696;10.808;2023-03-26T06:43:16;97490.97;;;6.51;100.00
64080;BME280;51042;49.696;10.808;2023-03-26T06:45:41;97486.34;;;6.65;100.00
64080;BME280;51042;49.696;10.808;2023-03-26T06:48:06;97494.03;;;6.53;100.00
64080;BME280;51042;49.696;10.808;2023-03-26T06:50:32;97491.97;;;6.57;100.00
64080;BME280;51042;49.696;10.808;2023-03-26T06:52:57;97483.25;;;6.63;100.00
64080;BME280;51042;49.696;10.808;2023-03-26T06:55:23;97485.66;;;6.61;100.00
64080;BME280;51042;49.696;10.808;2023-03-26T06:57:48;97484.22;;;6.56;100.00
64080;BME280;51042;49.696;10.808;2023-03-26T07:00:14;97476.81;;;6.56;100.00
64080;BME280;51042;49.696;10.808;2023-03-26T07:02:39;97473.75;;;6.54;100.00
64080;BME280;51042;49.696;10.808;2023-03-26T07:05:04;97466.34;;;6.55;100.00
64080;BME280;51042;49.696;10.808;2023-03-26T07:07:30;97469.50;;;6.53;100.00
64080;BME280;51042;49.696;10.808;2023-03-26T07:09:56;97466.44;;;6.51;100.00
64080;BME280;51042;49.696;10.808;2023-03-26T07:12:21;97459.56;;;6.47;100.00
64080;BME280;51042;49.696;10.808;2023-03-26T07:14:46;97455.13;;;6.53;100.00
64080;BME280;51042;49.696;10.808;2023-03-26T07:17:11;97459.72;;;6.69;100.00
64080;BME280;51042;49.696;10.808;2023-03-26T07:19:36;97459.69;;;6.85;100.00
64080;BME280;51042;49.696;10.808;2023-03-26T07:22:02;97454.16;;;7.01;100.00
64080;BME280;51042;49.696;10.808;2023-03-26T07:24:27;97455.38;;;7.13;100.00
64080;BME280;51042;49.696;10.808;2023-03-26T07:36:45;97444.00;;;7.52;100.00
64080;BME280;51042;49.696;10.808;2023-03-26T07:42:04;97439.06;;;7.85;99.21
64080;BME280;51042;49.696;10.808;2023-03-26T07:44:45;97432.16;;;7.93;98.29
64080;BME280;51042;49.696;10.808;2023-03-26T07:47:19;97434.44;;;7.95;95.72
64080;BME280;51042;49.696;10.808;2023-03-26T07:49:49;97430.59;;;8.05;96.89
64080;BME280;51042;49.696;10.808;2023-03-26T07:52:15;97424.66;;;8.19;96.57
64080;BME280;51042;49.696;10.808;2023-03-26T07:54:41;97421.78;;;8.23;94.90
64080;BME280;51042;49.696;10.808;2023-03-26T07:57:12;97414.16;;;8.17;95.27
64080;BME280;51042;49.696;10.808;2023-03-26T08:00:27;97415.94;;;8.11;97.08
64080;BME280;51042;49.696;10.808;2023-03-26T08:02:39;97408.44;;;8.03;97.29
64080;BME280;51042;49.696;10.808;2023-03-26T08:05:12;97400.47;;;7.96;97.78
64080;BME280;51042;49.696;10.808;2023-03-26T08:07:48;97392.41;;;7.92;99.49
64080;BME280;51042;49.696;10.808;2023-03-26T08:12:56;97385.56;;;8.09;100.00
64080;BME280;51042;49.696;10.808;2023-03-26T08:20:49;97371.91;;;8.09;100.00
64080;BME280;51042;49.696;10.808;2023-03-26T08:23:20;97367.13;;;8.01;100.00
64080;BME280;51042;49.696;10.808;2023-03-26T08:25:52;97366.78;;;7.99;100.00
64080;BME280;51042;49.696;10.808;2023-03-26T08:28:38;97359.50;;;7.96;100.00
64080;BME280;51042;49.696;10.808;2023-03-26T08:31:10;97363.56;;;7.91;100.00
64080;BME280;51042;49.696;10.808;2023-03-26T08:33:37;97360.63;;;7.86;100.00
64080;BME280;51042;49.696;10.808;2023-03-26T08:36:04;97356.03;;;7.83;100.00
64080;BME280;51042;49.696;10.808;2023-03-26T08:38:30;97353.66;;;7.72;100.00
64080;BME280;51042;49.696;10.808;2023-03-26T08:46:10;97342.16;;;7.43;100.00
64080;BME280;51042;49.696;10.808;2023-03-26T08:51:27;97338.50;;;7.71;100.00
64080;BME280;51042;49.696;10.808;2023-03-26T09:04:34;97321.16;;;7.87;100.00
64080;BME280;51042;49.696;10.808;2023-03-26T09:07:13;97329.63;;;7.79;100.00
64080;BME280;51042;49.696;10.808;2023-03-26T09:14:44;97312.91;;;7.77;100.00
64080;BME280;51042;49.696;10.808;2023-03-26T09:25:30;97318.44;;;7.87;100.00
64080;BME280;51042;49.696;10.808;2023-03-26T09:33:19;97307.84;;;7.89;100.00
64080;BME280;51042;49.696;10.808;2023-03-26T09:38:41;97302.13;;;7.96;100.00
64080;BME280;51042;49.696;10.808;2023-03-26T09:41:12;97294.81;;;7.93;100.00
64080;BME280;51042;49.696;10.808;2023-03-26T09:48:59;97307.69;;;7.70;100.00
64080;BME280;51042;49.696;10.808;2023-03-26T09:51:29;97308.59;;;7.67;100.00
64080;BME280;51042;49.696;10.808;2023-03-26T10:01:38;97295.22;;;7.69;100.00
64080;BME280;51042;49.696;10.808;2023-03-26T10:04:25;97295.50;;;7.84;100.00
64080;BME280;51042;49.696;10.808;2023-03-26T10:07:04;97291.97;;;7.96;100.00
64080;BME280;51042;49.696;10.808;2023-03-26T10:09:35;97293.78;;;7.99;100.00
64080;BME280;51042;49.696;10.808;2023-03-26T10:22:42;97279.97;;;8.37;100.00
64080;BME280;51042;49.696;10.808;2023-03-26T10:33:11;97270.41;;;8.20;100.00
64080;BME280;51042;49.696;10.808;2023-03-26T10:41:17;97282.09;;;7.77;100.00
64080;BME280;51042;49.696;10.808;2023-03-26T10:49:00;97267.81;;;7.73;100.00
64080;BME280;51042;49.696;10.808;2023-03-26T10:51:38;97266.28;;;7.94;100.00
64080;BME280;51042;49.696;10.808;2023-03-26T10:56:43;97268.22;;;7.84;100.00
64080;BME280;51042;49.696;10.808;2023-03-26T10:59:11;97270.31;;;7.80;100.00
64080;BME280;51042;49.696;10.808;2023-03-26T11:09:26;97265.16;;;7.82;100.00
64080;BME280;51042;49.696;10.808;2023-03-26T11:17:12;97243.97;;;8.70;100.00
64080;BME280;51042;49.696;10.808;2023-03-26T11:30:04;97241.16;;;8.51;100.00
64080;BME280;51042;49.696;10.808;2023-03-26T11:32:45;97235.41;;;8.28;100.00
64080;BME280;51042;49.696;10.808;2023-03-26T11:37:46;97221.03;;;8.76;100.00
64080;BME280;51042;49.696;10.808;2023-03-26T11:40:19;97221.44;;;9.33;100.00
64080;BME280;51042;49.696;10.808;2023-03-26T11:42:49;97221.00;;;9.43;100.00
64080;BME280;51042;49.696;10.808;2023-03-26T11:45:19;97210.34;;;9.27;100.00
64080;BME280;51042;49.696;10.808;2023-03-26T11:47:50;97215.59;;;8.94;100.00
64080;BME280;51042;49.696;10.808;2023-03-26T11:50:24;97219.34;;;8.70;100.00
64080;BME280;51042;49.696;10.808;2023-03-26T11:52:50;97215.97;;;8.66;100.00
64080;BME280;51042;49.696;10.808;2023-03-26T11:55:16;97220.16;;;8.39;100.00
64080;BME280;51042;49.696;10.808;2023-03-26T11:57:43;97219.53;;;8.13;100.00
64080;BME280;51042;49.696;10.808;2023-03-26T12:00:13;97217.84;;;7.85;100.00
64080;BME280;51042;49.696;10.808;2023-03-26T12:02:42;97202.41;;;7.69;100.00
64080;BME280;51042;49.696;10.808;2023-03-26T12:07:41;97203.53;;;7.81;100.00
64080;BME280;51042;49.696;10.808;2023-03-26T12:10:20;97180.41;;;7.95;100.00
64080;BME280;51042;49.696;10.808;2023-03-26T12:12:45;97182.06;;;8.23;100.00
64080;BME280;51042;49.696;10.808;2023-03-26T12:15:12;97172.59;;;8.86;100.00
64080;BME280;51042;49.696;10.808;2023-03-26T12:17:38;97179.63;;;9.23;100.00
64080;BME280;51042;49.696;10.808;2023-03-26T12:22:47;97160.63;;;9.11;100.00
64080;BME280;51042;49.696;10.808;2023-03-26T12:27:51;97154.91;;;9.78;100.00
64080;BME280;51042;49.696;10.808;2023-03-26T12:32:55;97139.03;;;10.18;100.00
64080;BME280;51042;49.696;10.808;2023-03-26T12:35:23;97129.69;;;10.58;100.00
64080;BME280;51042;49.696;10.808;2023-03-26T12:37:51;97127.16;;;10.93;100.00
64080;BME280;51042;49.696;10.808;2023-03-26T12:42:50;97108.06;;;11.37;92.67
64080;BME280;51042;49.696;10.808;2023-03-26T12:45:15;97115.41;;;11.16;91.99
64080;BME280;51042;49.696;10.808;2023-03-26T12:47:44;97116.31;;;10.98;95.02
64080;BME280;51042;49.696;10.808;2023-03-26T12:50:13;97102.53;;;11.22;94.08
64080;BME280;51042;49.696;10.808;2023-03-26T12:52:44;97116.41;;;11.57;92.54
64080;BME280;51042;49.696;10.808;2023-03-26T12:55:14;97111.31;;;11.65;94.24
64080;BME280;51042;49.696;10.808;2023-03-26T12:58:03;97109.97;;;12.04;86.10
64080;BME280;51042;49.696;10.808;2023-03-26T13:03:01;97115.19;;;12.52;82.68
64080;BME280;51042;49.696;10.808;2023-03-26T13:11:03;97099.03;;;11.22;84.54
64080;BME280;51042;49.696;10.808;2023-03-26T13:13:41;97095.63;;;11.12;87.25
64080;BME280;51042;49.696;10.808;2023-03-26T13:23:55;97063.19;;;12.54;80.36
64080;BME280;51042;49.696;10.808;2023-03-26T13:31:33;97053.28;;;12.42;78.94
64080;BME280;51042;49.696;10.808;2023-03-26T13:37:05;97055.94;;;12.36;78.73
64080;BME280;51042;49.696;10.808;2023-03-26T13:39:45;97054.06;;;11.93;79.74
64080;BME280;51042;49.696;10.808;2023-03-26T13:47:30;97058.28;;;11.73;83.80
64080;BME280;51042;49.696;10.808;2023-03-26T13:50:09;97037.13;;;11.65;80.96
64080;BME280;51042;49.696;10.808;2023-03-26T13:53:41;97059.00;;;11.59;81.24
64080;BME280;51042;49.696;10.808;2023-03-26T13:55:35;97060.91;;;11.53;83.67
64080;BME280;51042;49.696;10.808;2023-03-26T13:58:02;97053.69;;;11.41;84.34
64080;BME280;51042;49.696;10.808;2023-03-26T14:00:38;97042.88;;;11.96;88.13
64080;BME280;51042;49.696;10.808;2023-03-26T14:03:09;97020.94;;;12.37;82.43
64080;BME280;51042;49.696;10.808;2023-03-26T14:05:41;97024.66;;;12.34;80.63
64080;BME280;51042;49.696;10.808;2023-03-26T14:08:23;97027.41;;;12.34;78.59
64080;BME280;51042;49.696;10.808;2023-03-26T14:10:52;97020.19;;;12.36;77.02
64080;BME280;51042;49.696;10.808;2023-03-26T14:16:24;97010.50;;;12.61;76.19
64080;BME280;51042;49.696;10.808;2023-03-26T14:24:33;97005.03;;;12.06;74.81
64080;BME280;51042;49.696;10.808;2023-03-26T14:29:47;96999.44;;;12.00;78.34
64080;BME280;51042;49.696;10.808;2023-03-26T14:35:35;97000.97;;;12.01;77.77
64080;BME280;51042;49.696;10.808;2023-03-26T14:37:55;97000.25;;;12.41;75.56
64080;BME280;51042;49.696;10.808;2023-03-26T14:42:52;96977.66;;;12.17;75.07
64080;BME280;51042;49.696;10.808;2023-03-26T14:45:25;96973.94;;;11.79;76.87
64080;BME280;51042;49.696;10.808;2023-03-26T14:50:44;96977.50;;;11.56;78.56
64080;BME280;51042;49.696;10.808;2023-03-26T14:53:30;96963.06;;;11.26;80.26
64080;BME280;51042;49.696;10.808;2023-03-26T15:11:25;96955.56;;;12.72;75.43
64080;BME280;51042;49.696;10.808;2023-03-26T15:16:54;96971.88;;;12.76;74.83
64080;BME280;51042;49.696;10.808;2023-03-26T15:35:04;96960.06;;;13.16;66.25
64080;BME280;51042;49.696;10.808;2023-03-26T15:40:18;96957.69;;;12.83;64.01
64080;BME280;51042;49.696;10.808;2023-03-26T15:50:42;96946.28;;;12.69;60.75
64080;BME280;51042;49.696;10.808;2023-03-26T15:53:15;96951.78;;;12.69;61.43
64080;BME280;51042;49.696;10.808;2023-03-26T15:58:43;96956.16;;;12.82;62.41
64080;BME280;51042;49.696;10.808;2023-03-26T16:01:12;96942.81;;;12.69;61.76
64080;BME280;51042;49.696;10.808;2023-03-26T16:03:49;96945.84;;;12.51;64.14
64080;BME280;51042;49.696;10.808;2023-03-26T16:11:10;96950.41;;;11.64;65.78
64080;BME280;51042;49.696;10.808;2023-03-26T16:13:49;96938.88;;;11.45;65.25
64080;BME280;51042;49.696;10.808;2023-03-26T16:16:19;96944.28;;;11.39;67.04
64080;BME280;51042;49.696;10.808;2023-03-26T16:18:53;96939.59;;;11.25;65.33
64080;BME280;51042;49.696;10.808;2023-03-26T16:34:57;96941.84;;;10.97;67.28
64080;BME280;51042;49.696;10.808;2023-03-26T16:37:37;96942.81;;;10.94;69.37
64080;BME280;51042;49.696;10.808;2023-03-26T16:42:52;96950.00;;;10.77;70.99
64080;BME280;51042;49.696;10.808;2023-03-26T16:48:23;96959.91;;;10.60;72.12
64080;BME280;51042;49.696;10.808;2023-03-26T16:53:38;96964.72;;;10.27;77.22
64080;BME280;51042;49.696;10.808;2023-03-26T16:56:20;96972.16;;;10.02;81.26
64080;BME280;51042;49.696;10.808;2023-03-26T16:58:52;96973.50;;;9.83;83.98
64080;BME280;51042;49.696;10.808;2023-03-26T17:04:11;96975.88;;;9.57;87.39
64080;BME280;51042;49.696;10.808;2023-03-26T17:07:23;96973.66;;;9.47;87.92
64080;BME280;51042;49.696;10.808;2023-03-26T17:22:42;96989.09;;;9.08;91.58
64080;BME280;51042;49.696;10.808;2023-03-26T17:25:20;96991.13;;;8.98;94.35
64080;BME280;51042;49.696;10.808;2023-03-26T17:27:51;96993.84;;;8.98;96.75
64080;BME280;51042;49.696;10.808;2023-03-26T17:32:51;97006.59;;;9.01;95.41
64080;BME280;51042;49.696;10.808;2023-03-26T17:35:33;97016.50;;;8.98;95.64
64080;BME280;51042;49.696;10.808;2023-03-26T17:37:59;97013.75;;;8.98;96.16
64080;BME280;51042;49.696;10.808;2023-03-26T17:40:25;97020.31;;;8.92;98.19
64080;BME280;51042;49.696;10.808;2023-03-26T17:43:07;97026.81;;;8.94;99.58
64080;BME280;51042;49.696;10.808;2023-03-26T17:45:35;97035.16;;;9.00;98.92
64080;BME280;51042;49.696;10.808;2023-03-26T17:48:05;97035.78;;;9.04;97.33
64080;BME280;51042;49.696;10.808;2023-03-26T17:50:35;97035.63;;;9.08;97.25
64080;BME280;51042;49.696;10.808;2023-03-26T17:53:15;97045.53;;;9.05;95.88
64080;BME280;51042;49.696;10.808;2023-03-26T17:55:42;97042.31;;;9.07;90.42